sensor_id;sensor_type;location;lat;lon;timestamp;temperature;humidity
20915;DHT22;10617;52.032;5.298;2023-11-21T00:03:01;7.20;99.90
20915;DHT22;10617;52.032;5.298;2023-11-21T00:12:08;7.20;99.90
20915;DHT22;10617;52.032;5.298;2023-11-21T00:16:11;7.10;99.90
20915;DHT22;10617;52.032;5.298;2023-11-21T00:20:13;7.10;99.90
20915;DHT22;10617;52.032;5.298;2023-11-21T00:24:15;7.10;99.90
20915;DHT22;10617;52.032;5.298;2023-11-21T00:28:17;7.20;99.90
20915;DHT22;10617;52.032;5.298;2023-11-21T00:32:18;7.10;99.90
20915;DHT22;10617;52.032;5.298;2023-11-21T00:36:20;7.20;99.90
20915;DHT22;10617;52.032;5.298;2023-11-21T00:40:21;7.20;99.90
20915;DHT22;10617;52.032;5.298;2023-11-21T00:44:24;7.20;99.90
20915;DHT22;10617;52.032;5.298;2023-11-21T00:48:25;7.20;99.90
20915;DHT22;10617;52.032;5.298;2023-11-21T00:52:27;7.20;99.90
20915;DHT22;10617;52.032;5.298;2023-11-21T00:56:29;7.10;99.90
20915;DHT22;10617;52.032;5.298;2023-11-21T01:00:30;7.20;99.90
20915;DHT22;10617;52.032;5.298;2023-11-21T01:04:32;7.20;99.90
20915;DHT22;10617;52.032;5.298;2023-11-21T01:08:34;7.20;99.90
20915;DHT22;10617;52.032;5.298;2023-11-21T01:12:36;7.20;99.90
20915;DHT22;10617;52.032;5.298;2023-11-21T01:16:38;7.20;99.90
20915;DHT22;10617;52.032;5.298;2023-11-21T01:20:40;7.20;99.90
20915;DHT22;10617;52.032;5.298;2023-11-21T01:24:42;7.20;99.90
20915;DHT22;10617;52.032;5.298;2023-11-21T01:28:43;7.20;99.90
20915;DHT22;10617;52.032;5.298;2023-11-21T01:32:45;7.20;99.90
20915;DHT22;10617;52.032;5.298;2023-11-21T01:36:47;7.20;99.90
20915;DHT22;10617;52.032;5.298;2023-11-21T01:40:49;7.20;99.90
20915;DHT22;10617;52.032;5.298;2023-11-21T01:44:50;7.20;99.90
20915;DHT22;10617;52.032;5.298;2023-11-21T01:48:52;7.20;99.90
20915;DHT22;10617;52.032;5.298;2023-11-21T01:52:54;7.20;99.90
20915;DHT22;10617;52.032;5.298;2023-11-21T01:56:59;7.10;99.90
20915;DHT22;10617;52.032;5.298;2023-11-21T02:01:04;7.10;99.90
20915;DHT22;10617;52.032;5.298;2023-11-21T02:05:06;7.10;99.90
20915;DHT22;10617;52.032;5.298;2023-11-21T02:09:10;7.10;99.90
20915;DHT22;10617;52.032;5.298;2023-11-21T02:13:13;7.10;99.90
20915;DHT22;10617;52.032;5.298;2023-11-21T02:17:14;7.20;99.90
20915;DHT22;10617;52.032;5.298;2023-11-21T02:31:35;7.30;99.90
20915;DHT22;10617;52.032;5.298;2023-11-21T02:35:39;7.30;99.90
20915;DHT22;10617;52.032;5.298;2023-11-21T02:39:40;7.40;99.90
20915;DHT22;10617;52.032;5.298;2023-11-21T02:43:42;7.40;99.90
20915;DHT22;10617;52.032;5.298;2023-11-21T02:47:44;7.50;99.90
20915;DHT22;10617;52.032;5.298;2023-11-21T02:51:46;7.50;99.90
20915;DHT22;10617;52.032;5.298;2023-11-21T02:55:48;7.60;99.90
20915;DHT22;10617;52.032;5.298;2023-11-21T02:59:49;7.60;99.90
20915;DHT22;10617;52.032;5.298;2023-11-21T03:03:51;7.60;99.90
20915;DHT22;10617;52.032;5.298;2023-11-21T03:07:53;7.60;99.90
20915;DHT22;10617;52.032;5.298;2023-11-21T03:11:55;7.60;99.90
20915;DHT22;10617;52.032;5.298;2023-11-21T03:15:57;7.70;99.90
20915;DHT22;10617;52.032;5.298;2023-11-21T03:19:58;7.70;99.90
20915;DHT22;10617;52.032;5.298;2023-11-21T03:24:01;7.70;99.90
20915;DHT22;10617;52.032;5.298;2023-11-21T03:28:03;7.80;99.90
20915;DHT22;10617;52.032;5.298;2023-11-21T03:32:04;7.80;99.90
20915;DHT22;10617;52.032;5.298;2023-11-21T03:36:06;7.80;99.90
20915;DHT22;10617;52.032;5.298;2023-11-21T03:40:09;7.90;99.90
20915;DHT22;10617;52.032;5.298;2023-11-21T03:44:11;7.90;99.90
20915;DHT22;10617;52.032;5.298;2023-11-21T03:48:12;7.90;99.90
20915;DHT22;10617;52.032;5.298;2023-11-21T03:52:14;7.90;99.90
20915;DHT22;10617;52.032;5.298;2023-11-21T03:56:16;8.00;99.90
20915;DHT22;10617;52.032;5.298;2023-11-21T04:00:17;8.00;99.90
20915;DHT22;10617;52.032;5.298;2023-11-21T04:14:28;8.00;99.90
20915;DHT22;10617;52.032;5.298;2023-11-21T04:18:30;8.10;99.90
20915;DHT22;10617;52.032;5.298;2023-11-21T04:22:32;8.10;99.90
20915;DHT22;10617;52.032;5.298;2023-11-21T04:26:34;8.10;99.90
20915;DHT22;10617;52.032;5.298;2023-11-21T04:30:36;8.10;99.90
20915;DHT22;10617;52.032;5.298;2023-11-21T04:34:37;8.10;99.90
20915;DHT22;10617;52.032;5.298;2023-11-21T04:38:39;8.10;99.90
20915;DHT22;10617;52.032;5.298;2023-11-21T04:52:51;8.20;99.90
20915;DHT22;10617;52.032;5.298;2023-11-21T05:07:00;8.20;99.90
20915;DHT22;10617;52.032;5.298;2023-11-21T05:11:02;8.30;99.90
20915;DHT22;10617;52.032;5.298;2023-11-21T05:15:04;8.30;99.90
20915;DHT22;10617;52.032;5.298;2023-11-21T05:19:09;8.30;99.90
20915;DHT22;10617;52.032;5.298;2023-11-21T05:23:10;8.40;99.90
20915;DHT22;10617;52.032;5.298;2023-11-21T05:27:12;8.40;99.90
20915;DHT22;10617;52.032;5.298;2023-11-21T05:36:30;8.40;99.90
20915;DHT22;10617;52.032;5.298;2023-11-21T05:40:32;8.50;99.90
20915;DHT22;10617;52.032;5.298;2023-11-21T05:44:33;8.50;99.90
20915;DHT22;10617;52.032;5.298;2023-11-21T05:48:36;8.60;99.90
20915;DHT22;10617;52.032;5.298;2023-11-21T05:52:41;8.60;99.90
20915;DHT22;10617;52.032;5.298;2023-11-21T05:56:43;8.60;99.90
20915;DHT22;10617;52.032;5.298;2023-11-21T06:00:44;8.60;99.90
20915;DHT22;10617;52.032;5.298;2023-11-21T06:04:46;8.60;99.90
20915;DHT22;10617;52.032;5.298;2023-11-21T06:08:48;8.60;99.90
20915;DHT22;10617;52.032;5.298;2023-11-21T06:12:50;8.60;99.90
20915;DHT22;10617;52.032;5.298;2023-11-21T06:16:51;8.60;99.90
20915;DHT22;10617;52.032;5.298;2023-11-21T06:20:54;8.60;99.90
20915;DHT22;10617;52.032;5.298;2023-11-21T06:24:55;8.60;99.90
20915;DHT22;10617;52.032;5.298;2023-11-21T06:28:57;8.70;99.90
20915;DHT22;10617;52.032;5.298;2023-11-21T06:32:59;8.70;99.90
20915;DHT22;10617;52.032;5.298;2023-11-21T06:37:01;8.70;99.90
20915;DHT22;10617;52.032;5.298;2023-11-21T06:41:02;8.70;99.90
20915;DHT22;10617;52.032;5.298;2023-11-21T06:45:06;8.70;99.90
20915;DHT22;10617;52.032;5.298;2023-11-21T06:49:08;8.70;99.90
20915;DHT22;10617;52.032;5.298;2023-11-21T06:53:09;8.80;99.90
20915;DHT22;10617;52.032;5.298;2023-11-21T06:57:11;8.80;99.90
20915;DHT22;10617;52.032;5.298;2023-11-21T07:01:13;8.80;99.90
20915;DHT22;10617;52.032;5.298;2023-11-21T07:05:15;8.80;99.90
20915;DHT22;10617;52.032;5.298;2023-11-21T07:09:17;8.80;99.90
20915;DHT22;10617;52.032;5.298;2023-11-21T07:13:18;8.90;99.90
20915;DHT22;10617;52.032;5.298;2023-11-21T07:17:20;8.90;99.90
20915;DHT22;10617;52.032;5.298;2023-11-21T07:21:24;9.00;99.90
20915;DHT22;10617;52.032;5.298;2023-11-21T07:25:26;9.00;99.90
20915;DHT22;10617;52.032;5.298;2023-11-21T07:29:27;9.00;99.90
20915;DHT22;10617;52.032;5.298;2023-11-21T07:33:31;9.10;99.90
20915;DHT22;10617;52.032;5.298;2023-11-21T07:37:33;9.10;99.90
20915;DHT22;10617;52.032;5.298;2023-11-21T07:41:34;9.20;99.90
20915;DHT22;10617;52.032;5.298;2023-11-21T07:45:36;9.30;99.90
20915;DHT22;10617;52.032;5.298;2023-11-21T07:49:38;9.30;99.90
20915;DHT22;10617;52.032;5.298;2023-11-21T07:53:39;9.40;99.90
20915;DHT22;10617;52.032;5.298;2023-11-21T07:57:41;9.40;99.90
20915;DHT22;10617;52.032;5.298;2023-11-21T08:01:43;9.40;99.90
20915;DHT22;10617;52.032;5.298;2023-11-21T08:05:45;9.50;99.90
20915;DHT22;10617;52.032;5.298;2023-11-21T08:09:46;9.50;99.90
20915;DHT22;10617;52.032;5.298;2023-11-21T08:13:50;9.60;99.90
20915;DHT22;10617;52.032;5.298;2023-11-21T08:17:52;9.70;99.90
20915;DHT22;10617;52.032;5.298;2023-11-21T08:21:54;9.70;99.90
20915;DHT22;10617;52.032;5.298;2023-11-21T08:25:56;9.80;99.90
20915;DHT22;10617;52.032;5.298;2023-11-21T08:29:57;9.80;99.90
20915;DHT22;10617;52.032;5.298;2023-11-21T08:33:59;9.90;99.90
20915;DHT22;10617;52.032;5.298;2023-11-21T08:38:04;10.00;99.90
20915;DHT22;10617;52.032;5.298;2023-11-21T08:42:06;10.10;99.90
20915;DHT22;10617;52.032;5.298;2023-11-21T08:46:07;10.10;99.90
20915;DHT22;10617;52.032;5.298;2023-11-21T08:50:13;10.20;99.90
20915;DHT22;10617;52.032;5.298;2023-11-21T08:54:15;10.20;99.90
20915;DHT22;10617;52.032;5.298;2023-11-21T08:58:17;10.20;99.90
20915;DHT22;10617;52.032;5.298;2023-11-21T09:02:18;10.20;99.90
20915;DHT22;10617;52.032;5.298;2023-11-21T09:06:20;10.20;99.90
20915;DHT22;10617;52.032;5.298;2023-11-21T09:10:22;10.30;99.90
20915;DHT22;10617;52.032;5.298;2023-11-21T09:14:24;10.40;99.90
20915;DHT22;10617;52.032;5.298;2023-11-21T09:18:26;10.40;99.90
20915;DHT22;10617;52.032;5.298;2023-11-21T09:22:27;10.60;99.90
20915;DHT22;10617;52.032;5.298;2023-11-21T09:26:31;10.70;99.90
20915;DHT22;10617;52.032;5.298;2023-11-21T09:30:33;10.90;99.90
20915;DHT22;10617;52.032;5.298;2023-11-21T09:50:16;11.20;99.90
20915;DHT22;10617;52.032;5.298;2023-11-21T09:54:19;11.20;99.90
20915;DHT22;10617;52.032;5.298;2023-11-21T09:58:22;11.20;99.90
20915;DHT22;10617;52.032;5.298;2023-11-21T10:02:27;11.20;99.90
20915;DHT22;10617;52.032;5.298;2023-11-21T10:06:31;11.20;99.90
20915;DHT22;10617;52.032;5.298;2023-11-21T10:10:33;11.10;99.90
20915;DHT22;10617;52.032;5.298;2023-11-21T10:14:36;11.00;99.90
20915;DHT22;10617;52.032;5.298;2023-11-21T10:18:38;11.00;99.90
20915;DHT22;10617;52.032;5.298;2023-11-21T10:22:42;10.90;99.90
20915;DHT22;10617;52.032;5.298;2023-11-21T10:26:44;11.00;99.90
20915;DHT22;10617;52.032;5.298;2023-11-21T10:30:53;11.00;99.90
20915;DHT22;10617;52.032;5.298;2023-11-21T10:34:55;11.00;99.90
20915;DHT22;10617;52.032;5.298;2023-11-21T10:38:57;11.00;99.90
20915;DHT22;10617;52.032;5.298;2023-11-21T10:43:05;11.00;99.90
20915;DHT22;10617;52.032;5.298;2023-11-21T10:47:08;11.00;99.90
20915;DHT22;10617;52.032;5.298;2023-11-21T10:51:09;10.90;99.90
20915;DHT22;10617;52.032;5.298;2023-11-21T10:55:18;10.90;99.90
20915;DHT22;10617;52.032;5.298;2023-11-21T10:59:20;11.00;99.90
20915;DHT22;10617;52.032;5.298;2023-11-21T11:03:26;11.00;99.90
20915;DHT22;10617;52.032;5.298;2023-11-21T11:07:28;11.00;99.90
20915;DHT22;10617;52.032;5.298;2023-11-21T11:11:31;10.90;99.90
20915;DHT22;10617;52.032;5.298;2023-11-21T11:15:33;10.90;99.90
20915;DHT22;10617;52.032;5.298;2023-11-21T11:19:35;10.90;99.90
20915;DHT22;10617;52.032;5.298;2023-11-21T11:28:06;10.90;99.90
20915;DHT22;10617;52.032;5.298;2023-11-21T11:32:15;10.90;99.90
20915;DHT22;10617;52.032;5.298;2023-11-21T11:40:38;10.90;99.90
20915;DHT22;10617;52.032;5.298;2023-11-21T11:48:48;10.90;99.90
20915;DHT22;10617;52.032;5.298;2023-11-21T11:52:51;10.90;99.90
20915;DHT22;10617;52.032;5.298;2023-11-21T11:56:54;10.90;99.90
20915;DHT22;10617;52.032;5.298;2023-11-21T12:00:55;10.90;99.90
20915;DHT22;10617;52.032;5.298;2023-11-21T12:04:57;10.90;99.90
20915;DHT22;10617;52.032;5.298;2023-11-21T12:09:00;10.90;99.90
20915;DHT22;10617;52.032;5.298;2023-11-21T12:13:06;10.90;99.90
20915;DHT22;10617;52.032;5.298;2023-11-21T12:17:09;10.90;99.90
20915;DHT22;10617;52.032;5.298;2023-11-21T12:21:11;11.00;99.90
20915;DHT22;10617;52.032;5.298;2023-11-21T12:25:13;11.00;99.90
20915;DHT22;10617;52.032;5.298;2023-11-21T12:29:17;11.10;99.90
20915;DHT22;10617;52.032;5.298;2023-11-21T12:33:19;11.10;99.90
20915;DHT22;10617;52.032;5.298;2023-11-21T12:37:21;11.20;99.90
20915;DHT22;10617;52.032;5.298;2023-11-21T12:41:23;11.20;99.90
20915;DHT22;10617;52.032;5.298;2023-11-21T12:45:26;11.20;99.90
20915;DHT22;10617;52.032;5.298;2023-11-21T12:49:29;11.10;99.90
20915;DHT22;10617;52.032;5.298;2023-11-21T12:53:30;11.10;99.90
20915;DHT22;10617;52.032;5.298;2023-11-21T12:57:40;11.10;99.90
20915;DHT22;10617;52.032;5.298;2023-11-21T13:01:43;11.00;99.90
20915;DHT22;10617;52.032;5.298;2023-11-21T13:05:45;11.00;99.90
20915;DHT22;10617;52.032;5.298;2023-11-21T13:09:52;11.00;99.90
20915;DHT22;10617;52.032;5.298;2023-11-21T13:13:54;10.90;99.90
20915;DHT22;10617;52.032;5.298;2023-11-21T13:17:55;10.90;99.90
20915;DHT22;10617;52.032;5.298;2023-11-21T13:21:59;10.90;99.90
20915;DHT22;10617;52.032;5.298;2023-11-21T13:26:03;10.90;99.90
20915;DHT22;10617;52.032;5.298;2023-11-21T13:30:08;11.00;99.90
20915;DHT22;10617;52.032;5.298;2023-11-21T13:34:10;11.00;99.90
20915;DHT22;10617;52.032;5.298;2023-11-21T13:38:18;11.00;99.90
20915;DHT22;10617;52.032;5.298;2023-11-21T13:42:24;11.00;99.90
20915;DHT22;10617;52.032;5.298;2023-11-21T13:46:27;11.10;99.90
20915;DHT22;10617;52.032;5.298;2023-11-21T13:50:29;11.10;99.90
20915;DHT22;10617;52.032;5.298;2023-11-21T13:54:34;11.20;99.90
20915;DHT22;10617;52.032;5.298;2023-11-21T13:58:35;11.20;99.90
20915;DHT22;10617;52.032;5.298;2023-11-21T14:02:48;11.20;99.90
20915;DHT22;10617;52.032;5.298;2023-11-21T14:06:50;11.20;99.90
20915;DHT22;10617;52.032;5.298;2023-11-21T14:10:56;11.20;99.90
20915;DHT22;10617;52.032;5.298;2023-11-21T14:14:59;11.20;99.90
20915;DHT22;10617;52.032;5.298;2023-11-21T14:19:01;11.10;99.90
20915;DHT22;10617;52.032;5.298;2023-11-21T14:23:15;11.00;99.90
20915;DHT22;10617;52.032;5.298;2023-11-21T14:27:17;10.90;99.90
20915;DHT22;10617;52.032;5.298;2023-11-21T14:31:18;10.90;99.90
20915;DHT22;10617;52.032;5.298;2023-11-21T14:35:20;10.80;99.90
20915;DHT22;10617;52.032;5.298;2023-11-21T14:39:22;10.80;99.90
20915;DHT22;10617;52.032;5.298;2023-11-21T14:43:29;10.80;99.90
20915;DHT22;10617;52.032;5.298;2023-11-21T14:47:35;10.70;99.90
20915;DHT22;10617;52.032;5.298;2023-11-21T14:51:40;10.70;99.90
20915;DHT22;10617;52.032;5.298;2023-11-21T14:56:01;10.60;99.90
20915;DHT22;10617;52.032;5.298;2023-11-21T15:00:05;10.50;99.90
20915;DHT22;10617;52.032;5.298;2023-11-21T15:04:11;10.50;99.90
20915;DHT22;10617;52.032;5.298;2023-11-21T15:08:31;10.50;99.90
20915;DHT22;10617;52.032;5.298;2023-11-21T15:12:33;10.40;99.90
20915;DHT22;10617;52.032;5.298;2023-11-21T15:16:39;10.40;99.90
20915;DHT22;10617;52.032;5.298;2023-11-21T15:20:45;10.30;99.90
20915;DHT22;10617;52.032;5.298;2023-11-21T15:24:46;10.30;99.90
20915;DHT22;10617;52.032;5.298;2023-11-21T15:28:50;10.20;99.90
20915;DHT22;10617;52.032;5.298;2023-11-21T15:32:52;10.20;99.90
20915;DHT22;10617;52.032;5.298;2023-11-21T15:36:55;10.10;99.90
20915;DHT22;10617;52.032;5.298;2023-11-21T15:40:56;10.10;99.90
20915;DHT22;10617;52.032;5.298;2023-11-21T15:45:00;10.00;99.90
20915;DHT22;10617;52.032;5.298;2023-11-21T15:49:01;10.00;99.90
20915;DHT22;10617;52.032;5.298;2023-11-21T15:53:05;10.00;99.90
20915;DHT22;10617;52.032;5.298;2023-11-21T15:57:07;9.90;99.90
20915;DHT22;10617;52.032;5.298;2023-11-21T16:01:09;9.90;99.90
20915;DHT22;10617;52.032;5.298;2023-11-21T16:05:11;9.90;99.90
20915;DHT22;10617;52.032;5.298;2023-11-21T16:09:15;9.80;99.90
20915;DHT22;10617;52.032;5.298;2023-11-21T16:13:23;9.80;99.90
20915;DHT22;10617;52.032;5.298;2023-11-21T16:17:25;9.70;99.90
20915;DHT22;10617;52.032;5.298;2023-11-21T16:21:28;9.50;99.90
20915;DHT22;10617;52.032;5.298;2023-11-21T16:25:29;9.50;99.90
20915;DHT22;10617;52.032;5.298;2023-11-21T16:29:31;9.40;99.90
20915;DHT22;10617;52.032;5.298;2023-11-21T16:33:34;9.40;99.90
20915;DHT22;10617;52.032;5.298;2023-11-21T16:37:36;9.30;99.90
20915;DHT22;10617;52.032;5.298;2023-11-21T16:41:38;9.20;99.90
20915;DHT22;10617;52.032;5.298;2023-11-21T16:45:40;9.20;99.90
20915;DHT22;10617;52.032;5.298;2023-11-21T16:49:41;9.10;99.90
20915;DHT22;10617;52.032;5.298;2023-11-21T16:53:44;9.10;99.90
20915;DHT22;10617;52.032;5.298;2023-11-21T16:57:46;9.00;99.90
20915;DHT22;10617;52.032;5.298;2023-11-21T17:01:47;9.00;99.90
20915;DHT22;10617;52.032;5.298;2023-11-21T17:05:50;8.90;99.90
20915;DHT22;10617;52.032;5.298;2023-11-21T17:09:52;8.90;99.90
20915;DHT22;10617;52.032;5.298;2023-11-21T17:13:53;8.80;99.90
20915;DHT22;10617;52.032;5.298;2023-11-21T17:17:55;8.70;99.90
20915;DHT22;10617;52.032;5.298;2023-11-21T17:21:59;8.50;99.90
20915;DHT22;10617;52.032;5.298;2023-11-21T17:26:01;8.50;99.90
20915;DHT22;10617;52.032;5.298;2023-11-21T17:30:03;8.40;99.90
20915;DHT22;10617;52.032;5.298;2023-11-21T17:34:05;8.30;99.90
20915;DHT22;10617;52.032;5.298;2023-11-21T17:38:07;8.30;99.90
20915;DHT22;10617;52.032;5.298;2023-11-21T17:42:09;8.20;99.90
20915;DHT22;10617;52.032;5.298;2023-11-21T17:46:11;8.10;99.90
20915;DHT22;10617;52.032;5.298;2023-11-21T17:50:13;8.10;99.90
20915;DHT22;10617;52.032;5.298;2023-11-21T17:54:15;8.00;99.90
20915;DHT22;10617;52.032;5.298;2023-11-21T17:58:17;7.90;99.90
20915;DHT22;10617;52.032;5.298;2023-11-21T18:02:18;7.90;99.90
20915;DHT22;10617;52.032;5.298;2023-11-21T18:06:20;7.80;99.90
20915;DHT22;10617;52.032;5.298;2023-11-21T18:10:22;7.80;99.90
20915;DHT22;10617;52.032;5.298;2023-11-21T18:14:23;7.70;99.90
20915;DHT22;10617;52.032;5.298;2023-11-21T18:18:26;7.70;99.90
20915;DHT22;10617;52.032;5.298;2023-11-21T18:22:28;7.70;99.90
20915;DHT22;10617;52.032;5.298;2023-11-21T18:26:30;7.60;99.90
20915;DHT22;10617;52.032;5.298;2023-11-21T18:30:31;7.60;99.90
20915;DHT22;10617;52.032;5.298;2023-11-21T18:34:33;7.50;99.90
20915;DHT22;10617;52.032;5.298;2023-11-21T18:38:35;7.50;99.90
20915;DHT22;10617;52.032;5.298;2023-11-21T18:42:37;7.40;99.90
20915;DHT22;10617;52.032;5.298;2023-11-21T18:46:39;7.40;99.90
20915;DHT22;10617;52.032;5.298;2023-11-21T18:50:41;7.30;99.90
20915;DHT22;10617;52.032;5.298;2023-11-21T18:54:43;7.30;99.90
20915;DHT22;10617;52.032;5.298;2023-11-21T18:58:44;7.30;99.90
20915;DHT22;10617;52.032;5.298;2023-11-21T19:02:46;7.30;99.90
20915;DHT22;10617;52.032;5.298;2023-11-21T19:06:48;7.20;99.90
20915;DHT22;10617;52.032;5.298;2023-11-21T19:10:50;7.10;99.90
20915;DHT22;10617;52.032;5.298;2023-11-21T19:14:52;7.10;99.90
20915;DHT22;10617;52.032;5.298;2023-11-21T19:18:53;7.00;99.90
20915;DHT22;10617;52.032;5.298;2023-11-21T19:22:55;6.90;99.90
20915;DHT22;10617;52.032;5.298;2023-11-21T19:26:57;6.90;99.90
20915;DHT22;10617;52.032;5.298;2023-11-21T19:30:59;6.80;99.90
20915;DHT22;10617;52.032;5.298;2023-11-21T19:35:01;6.80;99.90
20915;DHT22;10617;52.032;5.298;2023-11-21T19:39:02;6.80;99.90
20915;DHT22;10617;52.032;5.298;2023-11-21T19:43:04;6.70;99.90
20915;DHT22;10617;52.032;5.298;2023-11-21T19:47:06;6.60;99.90
20915;DHT22;10617;52.032;5.298;2023-11-21T19:51:08;6.60;99.90
20915;DHT22;10617;52.032;5.298;2023-11-21T19:55:10;6.50;99.90
20915;DHT22;10617;52.032;5.298;2023-11-21T19:59:13;6.50;99.90
20915;DHT22;10617;52.032;5.298;2023-11-21T20:03:17;6.40;99.90
20915;DHT22;10617;52.032;5.298;2023-11-21T20:07:22;6.40;99.90
20915;DHT22;10617;52.032;5.298;2023-11-21T20:11:27;6.30;99.90
20915;DHT22;10617;52.032;5.298;2023-11-21T20:15:29;6.20;99.90
20915;DHT22;10617;52.032;5.298;2023-11-21T20:19:30;6.10;99.90
20915;DHT22;10617;52.032;5.298;2023-11-21T20:23:32;6.00;99.90
20915;DHT22;10617;52.032;5.298;2023-11-21T20:27:34;6.00;99.90
20915;DHT22;10617;52.032;5.298;2023-11-21T20:31:35;5.90;99.90
20915;DHT22;10617;52.032;5.298;2023-11-21T20:35:37;5.80;99.90
20915;DHT22;10617;52.032;5.298;2023-11-21T20:39:41;5.80;99.90
20915;DHT22;10617;52.032;5.298;2023-11-21T20:43:42;5.80;99.90
20915;DHT22;10617;52.032;5.298;2023-11-21T20:47:44;5.70;99.90
20915;DHT22;10617;52.032;5.298;2023-11-21T20:51:46;5.60;99.90
20915;DHT22;10617;52.032;5.298;2023-11-21T20:55:48;5.60;99.90
20915;DHT22;10617;52.032;5.298;2023-11-21T20:59:51;5.60;99.90
20915;DHT22;10617;52.032;5.298;2023-11-21T21:03:53;5.50;99.90
20915;DHT22;10617;52.032;5.298;2023-11-21T21:07:54;5.50;99.90
20915;DHT22;10617;52.032;5.298;2023-11-21T21:11:57;5.50;99.90
20915;DHT22;10617;52.032;5.298;2023-11-21T21:15:59;5.40;99.90
20915;DHT22;10617;52.032;5.298;2023-11-21T21:20:01;5.40;99.90
20915;DHT22;10617;52.032;5.298;2023-11-21T21:24:03;5.40;99.90
20915;DHT22;10617;52.032;5.298;2023-11-21T21:28:04;5.30;99.90
20915;DHT22;10617;52.032;5.298;2023-11-21T21:32:06;5.20;99.90
20915;DHT22;10617;52.032;5.298;2023-11-21T21:36:12;5.10;99.90
20915;DHT22;10617;52.032;5.298;2023-11-21T21:40:13;5.10;99.90
20915;DHT22;10617;52.032;5.298;2023-11-21T21:44:15;5.10;99.90
20915;DHT22;10617;52.032;5.298;2023-11-21T21:48:17;5.10;99.90
20915;DHT22;10617;52.032;5.298;2023-11-21T21:52:18;5.10;99.90
20915;DHT22;10617;52.032;5.298;2023-11-21T21:56:20;5.20;99.90
20915;DHT22;10617;52.032;5.298;2023-11-21T22:00:22;5.20;99.90
20915;DHT22;10617;52.032;5.298;2023-11-21T22:04:24;5.20;99.90
20915;DHT22;10617;52.032;5.298;2023-11-21T22:08:27;5.10;99.90
20915;DHT22;10617;52.032;5.298;2023-11-21T22:12:28;5.10;99.90
20915;DHT22;10617;52.032;5.298;2023-11-21T22:16:30;5.20;99.90
20915;DHT22;10617;52.032;5.298;2023-11-21T22:20:32;5.20;99.90
20915;DHT22;10617;52.032;5.298;2023-11-21T22:24:36;5.20;99.90
20915;DHT22;10617;52.032;5.298;2023-11-21T22:28:39;5.20;99.90
20915;DHT22;10617;52.032;5.298;2023-11-21T22:32:41;5.20;99.90
20915;DHT22;10617;52.032;5.298;2023-11-21T22:36:42;5.20;99.90
20915;DHT22;10617;52.032;5.298;2023-11-21T22:40:44;5.10;99.90
20915;DHT22;10617;52.032;5.298;2023-11-21T22:44:46;5.10;99.90
20915;DHT22;10617;52.032;5.298;2023-11-21T22:48:47;5.00;99.90
20915;DHT22;10617;52.032;5.298;2023-11-21T22:52:50;5.00;99.90
20915;DHT22;10617;52.032;5.298;2023-11-21T22:56:54;4.90;99.90
20915;DHT22;10617;52.032;5.298;2023-11-21T23:00:55;4.80;99.90
20915;DHT22;10617;52.032;5.298;2023-11-21T23:04:59;4.80;99.90
20915;DHT22;10617;52.032;5.298;2023-11-21T23:09:00;4.80;99.90
20915;DHT22;10617;52.032;5.298;2023-11-21T23:13:02;4.70;99.90
20915;DHT22;10617;52.032;5.298;2023-11-21T23:17:04;4.70;99.90
20915;DHT22;10617;52.032;5.298;2023-11-21T23:21:06;4.70;99.90
20915;DHT22;10617;52.032;5.298;2023-11-21T23:25:10;4.70;99.90
20915;DHT22;10617;52.032;5.298;2023-11-21T23:29:12;4.70;99.90
20915;DHT22;10617;52.032;5.298;2023-11-21T23:33:14;4.70;99.90
20915;DHT22;10617;52.032;5.298;2023-11-21T23:37:16;4.70;99.90
20915;DHT22;10617;52.032;5.298;2023-11-21T23:41:18;4.70;99.90
20915;DHT22;10617;52.032;5.298;2023-11-21T23:45:19;4.60;99.90
20915;DHT22;10617;52.032;5.298;2023-11-21T23:49:21;4.60;99.90
20915;DHT22;10617;52.032;5.298;2023-11-21T23:53:23;4.60;99.90
20915;DHT22;10617;52.032;5.298;2023-11-21T23:57:25;4.60;99.90
